Time;durP1;ratioP1;P1;durP2;ratioP2;P2;SDS_P1;SDS_P2;PMS_P1;PMS_P2;Temp;Humidity;BMP_temperature;BMP_pressure;BME280_temperature;BME280_humidity;BME280_pressure;Samples;Min_cycle;Max_cycle;Signal;HPM_P1;HPM_P2
2021/05/29 00:00:47;;;;;;;5.03;1.88;;;;;;;;;;5039008;28;20033;-77
2021/05/29 00:03:13;;;;;;;4.68;2.22;;;;;;;;;;5044494;28;20025;-76
2021/05/29 00:05:39;;;;;;;3.47;1.77;;;14.40;84.40;;;;;;5060241;28;20119;-77
2021/05/29 00:08:05;;;;;;;2.42;1.70;;;;;;;;;;5068984;28;20025;-76
2021/05/29 00:10:32;;;;;;;5.13;2.35;;;14.30;85.30;;;;;;5063716;28;20028;-77
2021/05/29 00:12:58;;;;;;;2.72;1.73;;;;;;;;;;5059493;28;20518;-77
2021/05/29 00:15:29;;;;;;;4.93;1.88;;;14.40;85.40;;;;;;5047132;28;20032;-77
2021/05/29 00:17:55;;;;;;;2.55;1.60;;;;;;;;;;5051838;28;20036;-76
2021/05/29 00:20:22;;;;;;;2.97;1.75;;;14.30;85.50;;;;;;5069682;28;20114;-77
2021/05/29 00:22:48;;;;;;;5.32;2.42;;;;;;;;;;5063452;28;20029;-76
2021/05/29 00:25:14;;;;;;;7.30;3.17;;;14.20;85.60;;;;;;5064826;28;20024;-77
2021/05/29 00:27:40;;;;;;;8.15;3.13;;;14.30;85.90;;;;;;5070226;28;20033;-77
2021/05/29 00:30:06;;;;;;;5.03;2.15;;;14.20;85.60;;;;;;5061887;28;20024;-76
2021/05/29 00:32:32;;;;;;;3.90;1.88;;;14.20;87.30;;;;;;5069637;28;20032;-77
2021/05/29 00:34:58;;;;;;;5.35;2.85;;;14.10;90.10;;;;;;5069477;28;20032;-78
2021/05/29 00:37:24;;;;;;;4.20;2.10;;;;;;;;;;5045669;28;20025;-77
2021/05/29 00:39:50;;;;;;;8.05;3.42;;;;;;;;;;5056389;28;20016;-76
2021/05/29 00:42:16;;;;;;;5.55;2.60;;;;;;;;;;5073150;28;20457;-77
2021/05/29 00:44:50;;;;;;;6.45;2.10;;;13.90;92.00;;;;;;5049275;28;20489;-78
2021/05/29 00:47:24;;;;;;;6.43;2.72;;;13.70;92.20;;;;;;5043041;28;20029;-77
2021/05/29 00:49:51;;;;;;;8.60;4.00;;;13.80;92.40;;;;;;5044138;28;20553;-76
2021/05/29 00:52:18;;;;;;;5.47;2.08;;;13.80;91.90;;;;;;5057501;28;20440;-76
2021/05/29 00:54:45;;;;;;;3.97;2.28;;;;;;;;;;5066597;28;20059;-77
2021/05/29 00:57:11;;;;;;;5.82;2.95;;;;;;;;;;5046733;28;20028;-77
2021/05/29 00:59:37;;;;;;;11.73;5.38;;;13.80;93.20;;;;;;5046914;28;20390;-75
2021/05/29 01:02:04;;;;;;;4.95;3.08;;;13.80;93.10;;;;;;5060030;28;20029;-77
2021/05/29 01:04:30;;;;;;;7.00;3.20;;;;;;;;;;5046031;28;20035;-76
2021/05/29 01:06:56;;;;;;;6.18;3.63;;;;;;;;;;5062540;28;20032;-75
2021/05/29 01:09:24;;;;;;;3.90;2.20;;;13.60;94.90;;;;;;5053915;28;20575;-77
2021/05/29 01:11:51;;;;;;;6.20;2.90;;;13.50;95.30;;;;;;5047892;28;20124;-77
2021/05/29 01:14:17;;;;;;;3.90;2.30;;;;;;;;;;5050723;28;20017;-78
2021/05/29 01:16:57;;;;;;;6.00;2.33;;;13.50;96.20;;;;;;5060702;28;20515;-79
2021/05/29 01:19:23;;;;;;;6.20;2.67;;;;;;;;;;5052171;28;20159;-76
2021/05/29 01:21:49;;;;;;;5.80;3.10;;;;;;;;;;5067635;28;20029;-76
2021/05/29 01:24:18;;;;;;;4.20;2.55;;;13.20;96.90;;;;;;5076552;28;20055;-77
2021/05/29 01:26:44;;;;;;;5.43;2.55;;;13.20;97.20;;;;;;5062768;28;20054;-76
2021/05/29 01:29:11;;;;;;;4.28;3.00;;;;;;;;;;5041384;28;20017;-75
2021/05/29 01:31:36;;;;;;;3.55;2.38;;;13.30;97.90;;;;;;5045843;28;20044;-77
2021/05/29 01:34:03;;;;;;;3.67;2.20;;;13.00;98.00;;;;;;5070964;28;20020;-77
2021/05/29 01:36:29;;;;;;;6.18;2.85;;;13.00;98.60;;;;;;5065588;28;20016;-77
2021/05/29 01:38:58;;;;;;;4.90;2.50;;;12.80;98.80;;;;;;5058978;28;20054;-77
2021/05/29 01:41:24;;;;;;;4.22;2.05;;;12.70;99.00;;;;;;5063487;28;20028;-76
2021/05/29 01:43:51;;;;;;;4.82;2.25;;;12.70;99.00;;;;;;5056603;28;20029;-78
2021/05/29 01:46:20;;;;;;;4.47;2.30;;;12.70;99.30;;;;;;5061625;28;20025;-78
2021/05/29 01:48:48;;;;;;;4.78;2.05;;;12.70;99.60;;;;;;5048229;28;20029;-76
2021/05/29 01:51:16;;;;;;;3.88;2.08;;;12.60;99.40;;;;;;5050914;28;20067;-77
2021/05/29 01:53:43;;;;;;;3.65;2.10;;;12.60;99.70;;;;;;5053751;28;20058;-77
2021/05/29 01:56:12;;;;;;;5.78;1.90;;;13.60;99.80;;;;;;5075839;28;20500;-78
2021/05/29 01:58:39;;;;;;;4.70;2.00;;;12.60;99.80;;;;;;5057464;28;20033;-78
2021/05/29 02:01:06;;;;;;;4.03;2.00;;;12.50;99.90;;;;;;5045513;28;20028;-77
2021/05/29 02:03:32;;;;;;;3.15;2.10;;;12.50;99.90;;;;;;5051144;28;20039;-77
2021/05/29 02:05:58;;;;;;;5.28;2.30;;;12.50;99.90;;;;;;5048813;28;20124;-77
2021/05/29 02:08:23;;;;;;;3.67;2.25;;;12.50;99.90;;;;;;5062253;28;20031;-78
2021/05/29 02:10:50;;;;;;;4.32;2.33;;;12.60;99.90;;;;;;5072984;28;20478;-77
2021/05/29 02:13:24;;;;;;;3.95;2.17;;;12.40;99.90;;;;;;5059695;28;20024;-77
2021/05/29 02:15:50;;;;;;;3.30;2.30;;;12.40;99.90;;;;;;5053886;28;20052;-77
2021/05/29 02:18:16;;;;;;;3.22;1.92;;;12.30;99.90;;;;;;5062973;28;20024;-77
2021/05/29 02:20:49;;;;;;;5.15;2.08;;;12.30;99.90;;;;;;5051855;28;20487;-77
2021/05/29 02:23:19;;;;;;;2.97;1.90;;;12.30;99.90;;;;;;5058018;28;20056;-77
2021/05/29 02:25:45;;;;;;;3.20;1.73;;;12.30;99.90;;;;;;5066817;28;20024;-77
2021/05/29 02:28:11;;;;;;;2.17;1.75;;;12.20;99.90;;;;;;5049366;28;20025;-77
2021/05/29 02:30:39;;;;;;;3.95;2.20;;;12.20;99.90;;;;;;5048145;28;20560;-77
2021/05/29 02:33:06;;;;;;;4.30;2.55;;;12.20;99.90;;;;;;5063013;28;20094;-78
2021/05/29 02:35:32;;;;;;;3.22;2.10;;;12.10;99.90;;;;;;5055257;28;20024;-78
2021/05/29 02:37:58;;;;;;;2.67;2.05;;;12.10;99.90;;;;;;5057121;28;20020;-78
2021/05/29 02:40:23;;;;;;;3.78;1.98;;;12.00;99.90;;;;;;5058868;28;20086;-76
2021/05/29 02:42:52;;;;;;;3.30;2.15;;;12.00;99.90;;;;;;5048235;28;20033;-75
2021/05/29 02:45:18;;;;;;;5.03;2.22;;;11.90;99.90;;;;;;5047275;28;20039;-78
2021/05/29 02:47:44;;;;;;;2.90;1.92;;;13.40;99.90;;;;;;5065072;28;20641;-75
2021/05/29 02:50:11;;;;;;;4.63;2.05;;;11.90;99.90;;;;;;5053920;28;20023;-76
2021/05/29 02:52:37;;;;;;;2.70;1.85;;;11.90;99.90;;;;;;5060355;28;20399;-76
2021/05/29 02:55:04;;;;;;;5.28;1.95;;;11.80;99.90;;;;;;5053588;28;20093;-77
2021/05/29 02:57:30;;;;;;;4.10;2.05;;;11.80;99.90;;;;;;5053739;28;20036;-77
2021/05/29 02:59:58;;;;;;;3.45;2.00;;;11.70;99.90;;;;;;5043005;28;20053;-77
2021/05/29 03:02:24;;;;;;;2.35;1.70;;;11.70;99.90;;;;;;5045172;28;20611;-78
2021/05/29 03:04:52;;;;;;;3.42;2.13;;;11.70;99.90;;;;;;5062997;28;20024;-76
2021/05/29 03:07:18;;;;;;;4.07;1.90;;;11.70;99.90;;;;;;5063929;28;20175;-77
2021/05/29 03:09:45;;;;;;;3.00;1.95;;;11.60;99.90;;;;;;5070606;28;20029;-76
2021/05/29 03:12:11;;;;;;;3.40;2.10;;;12.30;99.90;;;;;;5067921;28;20067;-76
2021/05/29 03:14:39;;;;;;;3.63;2.15;;;11.50;99.90;;;;;;5050134;28;20555;-77
2021/05/29 03:17:04;;;;;;;4.60;2.08;;;11.50;99.90;;;;;;5046872;28;20455;-77
2021/05/29 03:19:30;;;;;;;4.57;2.10;;;11.50;99.90;;;;;;5071734;28;20068;-77
2021/05/29 03:21:56;;;;;;;4.53;2.13;;;11.40;99.90;;;;;;5065598;28;20020;-77
2021/05/29 03:24:21;;;;;;;3.17;2.15;;;11.40;99.90;;;;;;5054616;28;20036;-79
2021/05/29 03:26:47;;;;;;;3.30;1.90;;;11.30;99.90;;;;;;5071513;28;20053;-77
2021/05/29 03:29:13;;;;;;;3.83;1.80;;;11.30;99.90;;;;;;5047626;28;20020;-76
2021/05/29 03:31:40;;;;;;;4.28;1.85;;;11.30;99.90;;;;;;5071242;28;20107;-75
2021/05/29 03:34:06;;;;;;;3.28;2.20;;;11.30;99.90;;;;;;5069473;28;20137;-77
2021/05/29 03:36:32;;;;;;;3.30;2.28;;;11.30;99.90;;;;;;5064067;28;20028;-77
2021/05/29 03:38:58;;;;;;;3.20;2.00;;;11.30;99.90;;;;;;5084095;28;20028;-77
2021/05/29 03:41:24;;;;;;;4.25;2.40;;;11.30;99.90;;;;;;5049758;28;20119;-77
2021/05/29 03:43:50;;;;;;;3.33;1.90;;;11.20;99.90;;;;;;5049334;28;20574;-76
2021/05/29 03:46:15;;;;;;;7.47;2.85;;;11.20;99.90;;;;;;5048883;28;20074;-78
2021/05/29 03:48:41;;;;;;;6.85;3.30;;;12.20;99.90;;;;;;5064394;28;20064;-78
2021/05/29 03:51:06;;;;;;;7.88;2.40;;;11.30;99.90;;;;;;5039995;28;20033;-77
2021/05/29 03:53:32;;;;;;;13.30;6.20;;;11.30;99.90;;;;;;5060837;28;20120;-77
2021/05/29 03:55:58;;;;;;;4.75;2.58;;;11.40;99.90;;;;;;5041800;28;20190;-77
2021/05/29 03:58:23;;;;;;;5.53;2.70;;;11.40;99.90;;;;;;5055319;28;20024;-79
2021/05/29 04:00:50;;;;;;;5.50;3.00;;;11.70;99.90;;;;;;5058545;28;20028;-76
2021/05/29 04:03:15;;;;;;;5.70;2.90;;;11.50;99.90;;;;;;5057663;28;20032;-77
2021/05/29 04:05:41;;;;;;;6.50;3.50;;;11.50;99.90;;;;;;5045417;28;20059;-78
2021/05/29 04:08:09;;;;;;;5.43;3.10;;;11.40;99.90;;;;;;5044163;28;20033;-77
2021/05/29 04:10:37;;;;;;;4.68;2.65;;;11.50;99.90;;;;;;5056739;28;20020;-78
2021/05/29 04:13:03;;;;;;;3.35;2.05;;;11.50;99.90;;;;;;5043751;28;20024;-76
2021/05/29 04:15:29;;;;;;;5.07;2.50;;;11.50;99.90;;;;;;5045348;28;20491;-77
2021/05/29 04:17:55;;;;;;;5.93;2.17;;;11.50;99.90;;;;;;5057326;28;20636;-75
2021/05/29 04:20:25;;;;;;;3.38;2.13;;;11.40;99.90;;;;;;5037037;28;20120;-76
2021/05/29 04:22:51;;;;;;;3.60;2.08;;;11.40;99.90;;;;;;5057872;28;20025;-77
2021/05/29 04:25:20;;;;;;;4.72;2.28;;;11.40;99.90;;;;;;5045489;28;20077;-75
2021/05/29 04:27:46;;;;;;;6.03;2.58;;;11.50;99.90;;;;;;5063831;28;20046;-77
2021/05/29 04:30:15;;;;;;;4.75;2.25;;;11.60;99.90;;;;;;5059106;28;20032;-76
2021/05/29 04:32:41;;;;;;;4.05;2.05;;;11.60;99.90;;;;;;5038719;28;20632;-76
2021/05/29 04:35:08;;;;;;;5.07;2.13;;;11.60;99.90;;;;;;5057496;28;20101;-76
2021/05/29 04:37:38;;;;;;;5.47;2.13;;;11.70;99.90;;;;;;5043843;28;20024;-78
2021/05/29 04:40:05;;;;;;;4.47;2.05;;;11.70;99.90;;;;;;5048322;28;20035;-74
2021/05/29 04:42:31;;;;;;;3.90;2.00;;;11.80;99.90;;;;;;5053858;28;20052;-76
2021/05/29 04:44:59;;;;;;;4.20;2.30;;;11.80;99.90;;;;;;5043688;28;20024;-76
2021/05/29 04:47:24;;;;;;;3.28;1.80;;;11.80;99.90;;;;;;5055393;28;20020;-77
2021/05/29 04:49:52;;;;;;;3.95;2.15;;;11.80;99.90;;;;;;5050045;28;20556;-77
2021/05/29 04:52:18;;;;;;;3.03;1.88;;;11.80;99.90;;;;;;5049349;28;20620;-78
2021/05/29 04:54:43;;;;;;;5.25;2.05;;;11.90;99.90;;;;;;5042746;28;20025;-77
2021/05/29 04:57:09;;;;;;;4.95;2.63;;;12.00;99.80;;;;;;5046844;28;20028;-77
2021/05/29 04:59:34;;;;;;;3.35;2.00;;;12.00;99.60;;;;;;5043985;28;20044;-78
2021/05/29 05:02:02;;;;;;;3.15;1.88;;;12.00;99.80;;;;;;5036837;28;20035;-77
2021/05/29 05:04:28;;;;;;;5.22;2.78;;;12.10;99.40;;;;;;5038753;28;20025;-79
2021/05/29 05:06:54;;;;;;;3.80;1.90;;;12.20;99.30;;;;;;5043455;28;20424;-77
2021/05/29 05:09:19;;;;;;;4.90;1.60;;;12.30;98.80;;;;;;5042117;28;20021;-77
2021/05/29 05:11:45;;;;;;;3.83;1.83;;;12.30;98.80;;;;;;5053724;28;20035;-78
2021/05/29 05:14:11;;;;;;;3.03;1.75;;;12.30;98.80;;;;;;5041024;28;20025;-76
2021/05/29 05:16:37;;;;;;;2.40;1.40;;;;;;;;;;5054178;28;20035;-78
2021/05/29 05:19:02;;;;;;;4.82;1.88;;;12.60;98.20;;;;;;5058614;28;20028;-77
2021/05/29 05:21:28;;;;;;;3.60;1.88;;;13.20;97.10;;;;;;5043605;28;20544;-76
2021/05/29 05:23:56;;;;;;;2.80;1.92;;;16.40;95.90;;;;;;5064255;28;20032;-77
2021/05/29 05:26:22;;;;;;;3.58;1.60;;;16.70;89.10;;;;;;5062376;28;20029;-78
2021/05/29 05:28:47;;;;;;;3.25;1.63;;;16.90;89.60;;;;;;5057804;28;20025;-78
2021/05/29 05:31:14;;;;;;;3.40;1.85;;;18.50;79.20;;;;;;5068681;28;20048;-77
2021/05/29 05:33:44;;;;;;;3.95;1.80;;;18.60;77.40;;;;;;5047278;28;20040;-78
2021/05/29 05:36:11;;;;;;;3.35;1.60;;;18.90;75.50;;;;;;5075676;28;20367;-77
2021/05/29 05:38:38;;;;;;;4.30;1.60;;;19.80;70.60;;;;;;5049988;28;20032;-77
2021/05/29 05:41:06;;;;;;;2.92;1.52;;;19.50;67.20;;;;;;5049668;28;20029;-78
2021/05/29 05:43:35;;;;;;;2.38;1.67;;;19.40;68.20;;;;;;5058955;28;20134;-77
2021/05/29 05:46:02;;;;;;;2.95;1.80;;;19.50;66.00;;;;;;5056631;28;20048;-78
2021/05/29 05:48:28;;;;;;;2.97;1.80;;;19.50;66.30;;;;;;5049171;28;20057;-77
2021/05/29 05:50:56;;;;;;;2.83;1.75;;;;;;;;;;5075219;28;20074;-76
2021/05/29 05:53:23;;;;;;;2.70;1.80;;;19.70;65.10;;;;;;5054044;28;20394;-77
2021/05/29 05:56:01;;;;;;;2.65;1.70;;;19.40;66.10;;;;;;5068309;28;20016;-78
2021/05/29 05:58:28;;;;;;;2.38;1.40;;;19.30;65.10;;;;;;5049143;28;20486;-77
2021/05/29 06:00:54;;;;;;;6.18;1.77;;;;;;;;;;5048892;28;20510;-77
2021/05/29 06:03:21;;;;;;;1.88;1.40;;;19.40;64.00;;;;;;5040566;28;20178;-77
2021/05/29 06:05:48;;;;;;;4.65;1.60;;;19.40;64.50;;;;;;5072163;28;20052;-75
2021/05/29 06:08:14;;;;;;;4.63;1.45;;;20.10;61.90;;;;;;5053736;28;20192;-77
2021/05/29 06:10:40;;;;;;;2.45;1.65;;;;;;;;;;5051763;28;20048;-78
2021/05/29 06:13:10;;;;;;;3.53;1.70;;;19.80;61.80;;;;;;5059053;28;20024;-77
2021/05/29 06:21:05;;;;;;;2.08;1.23;;;20.20;68.90;;;;;;5061913;28;20066;-76
2021/05/29 06:23:30;;;;;;;2.85;1.73;;;18.00;68.00;;;;;;5052586;28;20060;-77
2021/05/29 06:25:58;;;;;;;2.95;1.63;;;17.80;69.10;;;;;;5065977;28;20056;-77
2021/05/29 06:28:24;;;;;;;3.90;1.88;;;;;;;;;;5064848;28;20129;-76
2021/05/29 06:30:50;;;;;;;5.65;1.98;;;17.20;71.80;;;;;;5068329;28;20116;-77
2021/05/29 06:33:15;;;;;;;10.52;2.50;;;17.10;72.20;;;;;;5079195;28;20045;-77
2021/05/29 06:35:41;;;;;;;5.20;1.65;;;16.80;72.60;;;;;;5065129;28;20028;-75
2021/05/29 06:38:07;;;;;;;3.33;1.60;;;16.60;73.30;;;;;;5075367;28;20027;-77
2021/05/29 06:40:32;;;;;;;3.78;1.50;;;16.60;73.60;;;;;;5045449;28;20028;-79
2021/05/29 06:42:58;;;;;;;1.63;1.35;;;16.70;74.20;;;;;;5066230;28;20032;-79
2021/05/29 06:45:24;;;;;;;2.75;1.48;;;;;;;;;;5064723;28;20392;-80
2021/05/29 06:47:50;;;;;;;1.80;1.30;;;;;;;;;;5048968;28;20051;-79
2021/05/29 06:50:17;;;;;;;3.90;1.90;;;16.90;73.40;;;;;;5053029;28;20024;-81
2021/05/29 06:52:47;;;;;;;2.55;1.50;;;;;;;;;;5052253;28;20040;-82
2021/05/29 07:00:41;;;;;;;3.67;1.60;;;16.70;73.80;;;;;;5069987;28;20040;-83
2021/05/29 07:03:07;;;;;;;2.90;1.42;;;16.70;74.50;;;;;;5060480;28;20028;-79
2021/05/29 07:05:32;;;;;;;2.03;1.50;;;17.50;74.80;;;;;;5066286;28;20029;-77
2021/05/29 07:07:58;;;;;;;2.75;1.55;;;;;;;;;;5068851;28;20028;-81
2021/05/29 07:10:24;;;;;;;2.35;1.50;;;;;;;;;;5065851;28;20470;-80
2021/05/29 07:12:50;;;;;;;1.73;1.30;;;;;;;;;;5065863;28;20051;-80
2021/05/29 07:15:16;;;;;;;1.40;1.17;;;16.80;74.50;;;;;;5054609;28;20025;-80
2021/05/29 07:17:45;;;;;;;2.67;1.30;;;16.90;73.50;;;;;;5069779;28;20048;-81
2021/05/29 07:20:14;;;;;;;1.83;1.33;;;;;;;;;;5080084;28;20056;-78
2021/05/29 07:22:40;;;;;;;2.50;1.42;;;;;;;;;;5064638;28;20040;-82
2021/05/29 07:25:08;;;;;;;2.35;1.40;;;17.10;74.10;;;;;;5059191;28;20035;-79
2021/05/29 07:27:34;;;;;;;1.60;1.30;;;17.20;72.20;;;;;;5075356;28;20071;-79
2021/05/29 07:30:06;;;;;;;2.55;1.33;;;17.10;72.30;;;;;;5062983;28;20479;-80
2021/05/29 07:32:33;;;;;;;1.73;1.30;;;;;;;;;;5079964;28;20025;-80
2021/05/29 07:34:58;;;;;;;2.25;1.38;;;17.20;72.60;;;;;;5070307;28;20044;-79
2021/05/29 07:37:24;;;;;;;2.72;1.50;;;;;;;;;;5058103;28;20021;-80
2021/05/29 07:39:50;;;;;;;2.58;1.40;;;;;;;;;;5062383;28;20036;-82
2021/05/29 07:42:16;;;;;;;1.73;1.10;;;17.40;71.60;;;;;;5070170;28;20036;-80
2021/05/29 07:44:41;;;;;;;2.45;1.45;;;17.50;71.50;;;;;;5075478;28;20474;-78
2021/05/29 07:47:07;;;;;;;4.03;2.25;;;17.50;70.40;;;;;;5057009;28;20047;-80
2021/05/29 07:49:33;;;;;;;2.22;1.20;;;;;;;;;;5081061;28;20032;-79
2021/05/29 07:51:59;;;;;;;4.15;1.30;;;;;;;;;;5077788;28;20651;-81
2021/05/29 07:54:25;;;;;;;5.13;1.50;;;17.80;69.00;;;;;;5060486;28;20116;-79
2021/05/29 07:56:51;;;;;;;2.42;1.25;;;;;;;;;;5060550;28;20044;-80
2021/05/29 07:59:18;;;;;;;2.78;1.38;;;;;;;;;;5054977;28;20463;-78
2021/05/29 08:01:44;;;;;;;2.10;1.30;;;17.90;67.90;;;;;;5072417;28;20036;-81
2021/05/29 08:04:12;;;;;;;3.33;1.23;;;18.10;67.50;;;;;;5076506;28;20029;-81
2021/05/29 08:06:39;;;;;;;5.57;1.85;;;;;;;;;;5062163;28;20042;-82
2021/05/29 08:09:06;;;;;;;1.90;1.20;;;18.20;66.80;;;;;;5059167;28;20020;-81
2021/05/29 08:11:33;;;;;;;1.45;1.10;;;;;;;;;;5062677;28;20024;-86
2021/05/29 08:13:59;;;;;;;1.60;1.00;;;18.20;64.40;;;;;;5063411;28;20040;-84
2021/05/29 08:16:25;;;;;;;3.65;1.30;;;18.30;64.40;;;;;;5059082;28;20020;-83
2021/05/29 08:18:52;;;;;;;1.48;0.98;;;18.30;64.10;;;;;;5061126;28;20121;-81
2021/05/29 08:21:18;;;;;;;2.45;1.30;;;;;;;;;;5062388;28;20543;-80
2021/05/29 08:23:44;;;;;;;3.22;1.30;;;;;;;;;;5064898;28;20040;-84
2021/05/29 08:26:11;;;;;;;2.65;1.30;;;;;;;;;;5063419;28;20035;-79
2021/05/29 08:28:37;;;;;;;2.85;1.20;;;;;;;;;;5047227;28;20040;-79
2021/05/29 08:31:04;;;;;;;2.22;1.33;;;18.70;63.80;;;;;;5061960;28;20024;-81
2021/05/29 08:33:30;;;;;;;2.72;1.35;;;;;;;;;;5058888;28;20323;-80
2021/05/29 08:35:56;;;;;;;2.03;1.10;;;;;;;;;;5090311;28;20024;-77
2021/05/29 08:38:21;;;;;;;1.60;1.10;;;19.00;62.90;;;;;;5070193;28;20095;-78
2021/05/29 08:40:47;;;;;;;1.52;1.10;;;;;;;;;;5082108;28;20020;-75
2021/05/29 08:43:13;;;;;;;1.92;1.35;;;19.10;61.70;;;;;;5091231;28;20044;-78
2021/05/29 08:45:39;;;;;;;1.58;1.35;;;19.30;61.80;;;;;;5067404;28;20039;-79
2021/05/29 08:48:06;;;;;;;2.95;1.50;;;19.20;61.10;;;;;;5055634;28;20036;-78
2021/05/29 08:50:31;;;;;;;1.83;1.20;;;19.30;61.10;;;;;;5072710;28;20028;-77
2021/05/29 08:52:57;;;;;;;3.10;1.23;;;21.00;62.10;;;;;;5060233;28;20071;-77
2021/05/29 08:55:23;;;;;;;2.38;1.30;;;19.60;60.70;;;;;;5048626;28;20031;-78
2021/05/29 08:57:50;;;;;;;2.05;1.38;;;19.50;60.40;;;;;;5056761;28;20203;-80
2021/05/29 09:00:28;;;;;;;3.65;1.50;;;19.30;59.80;;;;;;5046789;28;20047;-77
2021/05/29 09:03:06;;;;;;;2.15;1.40;;;19.30;59.50;;;;;;5059730;28;20158;-78
2021/05/29 09:05:37;;;;;;;4.78;1.38;;;19.40;59.70;;;;;;5050772;28;20024;-78
2021/05/29 09:08:12;;;;;;;4.07;1.40;;;19.40;58.60;;;;;;5042842;28;20025;-77
2021/05/29 09:10:45;;;;;;;2.95;1.50;;;19.60;56.20;;;;;;5044569;28;20037;-76
2021/05/29 09:13:16;;;;;;;2.28;1.27;;;19.70;57.00;;;;;;5037092;28;20032;-80
2021/05/29 09:15:46;;;;;;;2.10;1.23;;;19.90;57.50;;;;;;5049874;28;20111;-77
2021/05/29 09:18:41;;;;;;;1.50;1.20;;;19.90;57.90;;;;;;5049198;28;20167;-77
2021/05/29 09:21:26;;;;;;;9.18;2.85;;;20.00;55.20;;;;;;5042441;28;20499;-76
2021/05/29 09:24:00;;;;;;;3.53;1.50;;;20.00;56.40;;;;;;5047899;28;20062;-78
2021/05/29 09:26:50;;;;;;;3.92;1.50;;;20.00;55.30;;;;;;5069651;28;20028;-78
2021/05/29 09:29:30;;;;;;;5.10;1.95;;;20.10;55.30;;;;;;5048063;28;20035;-78
2021/05/29 09:32:04;;;;;;;2.50;1.50;;;20.10;55.60;;;;;;5059929;28;20025;-79
2021/05/29 09:34:48;;;;;;;1.70;1.13;;;20.20;54.90;;;;;;5050657;28;20035;-79
2021/05/29 09:37:18;;;;;;;1.80;1.30;;;20.60;55.40;;;;;;5062360;28;20097;-79
2021/05/29 09:39:46;;;;;;;2.33;1.42;;;20.50;55.00;;;;;;5071513;28;20027;-78
2021/05/29 09:42:13;;;;;;;2.70;1.60;;;20.30;52.90;;;;;;5046440;28;20038;-77
2021/05/29 09:44:39;;;;;;;2.53;1.58;;;;;;;;;;5055117;28;20115;-78
2021/05/29 09:47:10;;;;;;;5.03;2.90;;;20.30;53.60;;;;;;5065490;28;20530;-79
2021/05/29 09:49:57;;;;;;;3.45;1.70;;;20.50;53.70;;;;;;5060149;28;20506;-78
2021/05/29 09:52:40;;;;;;;3.13;1.38;;;20.50;54.00;;;;;;5053648;28;20107;-78
2021/05/29 09:55:08;;;;;;;3.20;1.60;;;20.80;53.20;;;;;;5064804;28;20489;-77
2021/05/29 09:57:50;;;;;;;2.40;1.50;;;;;;;;;;5064562;28;20039;-78
2021/05/29 10:00:16;;;;;;;2.80;1.38;;;21.10;51.10;;;;;;5052114;28;20043;-78
2021/05/29 10:03:02;;;;;;;3.13;1.80;;;21.00;50.30;;;;;;5069242;28;20426;-79
2021/05/29 10:05:29;;;;;;;1.73;1.20;;;21.20;51.20;;;;;;5073381;28;20029;-81
2021/05/29 10:07:55;;;;;;;4.45;1.50;;;21.20;51.20;;;;;;5072229;28;20042;-81
2021/05/29 10:10:21;;;;;;;2.25;1.35;;;21.10;50.80;;;;;;5078140;28;20035;-79
2021/05/29 10:12:46;;;;;;;2.28;1.20;;;21.10;51.30;;;;;;5075421;28;20157;-78
2021/05/29 10:15:16;;;;;;;2.53;1.45;;;21.40;50.50;;;;;;5064859;28;20063;-76
2021/05/29 10:17:44;;;;;;;2.13;1.60;;;21.40;50.60;;;;;;5059224;28;20020;-79
2021/05/29 10:20:11;;;;;;;2.67;1.35;;;21.40;49.60;;;;;;5067055;28;20361;-75
2021/05/29 10:22:37;;;;;;;2.22;1.30;;;21.50;49.20;;;;;;5049163;28;20051;-78
2021/05/29 10:25:10;;;;;;;2.03;1.40;;;21.50;49.90;;;;;;5064193;28;20036;-78
2021/05/29 10:27:36;;;;;;;1.75;1.20;;;21.50;49.50;;;;;;5056402;28;20036;-79
2021/05/29 10:30:03;;;;;;;1.33;1.08;;;21.50;49.90;;;;;;5057168;28;20028;-79
2021/05/29 10:32:28;;;;;;;1.38;1.10;;;21.60;50.00;;;;;;5060644;28;20073;-79
2021/05/29 10:35:06;;;;;;;2.13;1.40;;;21.40;50.50;;;;;;5056322;28;20021;-79
2021/05/29 10:37:37;;;;;;;1.83;1.40;;;;;;;;;;5050552;28;20024;-78
2021/05/29 10:40:23;;;;;;;1.88;1.20;;;21.00;50.40;;;;;;5048743;28;20032;-77
2021/05/29 10:43:10;;;;;;;1.75;1.13;;;21.00;51.00;;;;;;5071723;28;20028;-78
2021/05/29 10:45:38;;;;;;;1.35;1.00;;;21.00;50.90;;;;;;5053684;28;20028;-77
2021/05/29 10:48:07;;;;;;;2.20;1.35;;;21.40;52.10;;;;;;5064330;28;20063;-77
2021/05/29 10:50:53;;;;;;;1.95;1.15;;;21.40;49.00;;;;;;5048600;28;20039;-77
2021/05/29 10:54:05;;;;;;;1.35;1.00;;;21.30;50.00;;;;;;5072536;28;20521;-79
2021/05/29 10:56:32;;;;;;;4.45;3.05;;;21.10;50.30;;;;;;4953951;28;20477;-79
2021/05/29 10:59:00;;;;;;;1.77;1.25;;;21.10;51.00;;;;;;4950599;28;20031;-79
2021/05/29 11:01:40;;;;;;;2.33;1.40;;;21.10;50.00;;;;;;5006876;28;20059;-79
2021/05/29 11:04:12;;;;;;;2.03;1.10;;;21.10;49.60;;;;;;5044167;28;20024;-78
2021/05/29 11:07:19;;;;;;;3.42;1.38;;;21.20;48.50;;;;;;5057021;28;20025;-79
2021/05/29 11:09:47;;;;;;;1.73;1.20;;;21.50;48.20;;;;;;5033151;28;20025;-77
2021/05/29 11:12:14;;;;;;;3.10;1.42;;;21.60;48.60;;;;;;5062883;28;20028;-77
2021/05/29 11:14:54;;;;;;;1.92;1.00;;;21.70;47.80;;;;;;5051287;28;20460;-79
2021/05/29 11:17:22;;;;;;;2.45;1.20;;;21.60;48.60;;;;;;5063578;28;20027;-77
2021/05/29 11:20:14;;;;;;;2.03;1.13;;;21.40;49.10;;;;;;5048160;28;20325;-77
2021/05/29 11:22:49;;;;;;;2.38;1.20;;;21.50;48.00;;;;;;5042158;28;20033;-78
2021/05/29 11:25:20;;;;;;;2.60;1.40;;;21.60;48.60;;;;;;5066226;28;20081;-78
2021/05/29 11:27:47;;;;;;;1.80;1.00;;;21.90;46.90;;;;;;5057569;28;20102;-79
2021/05/29 11:30:21;;;;;;;2.28;1.23;;;22.00;47.00;;;;;;5045213;28;20042;-77
2021/05/29 11:35:29;;;;;;;1.70;1.00;;;22.20;47.30;;;;;;5067060;28;20016;-79
2021/05/29 11:38:18;;;;;;;2.75;1.40;;;22.40;46.20;;;;;;5053970;28;20130;-79
2021/05/29 11:41:00;;;;;;;1.58;0.95;;;22.60;46.00;;;;;;5054654;28;20041;-77
2021/05/29 11:43:37;;;;;;;1.42;1.00;;;21.90;46.80;;;;;;5065392;28;20044;-78
2021/05/29 11:46:17;;;;;;;3.13;1.58;;;21.70;48.00;;;;;;5044251;28;20055;-78
2021/05/29 11:48:45;;;;;;;1.90;1.00;;;21.70;47.10;;;;;;5058178;28;20086;-79
2021/05/29 11:51:15;;;;;;;2.63;1.10;;;21.70;46.60;;;;;;5047922;28;20036;-78
2021/05/29 11:53:54;;;;;;;2.38;0.93;;;21.30;46.10;;;;;;5075771;28;20044;-76
2021/05/29 11:56:40;;;;;;;1.05;0.70;;;21.60;46.10;;;;;;5051958;28;20097;-77
2021/05/29 11:59:09;;;;;;;1.50;0.90;;;21.80;43.90;;;;;;5062020;28;20108;-79
2021/05/29 12:01:36;;;;;;;1.13;0.82;;;22.00;42.70;;;;;;5068762;28;20056;-77
2021/05/29 12:04:04;;;;;;;1.30;0.90;;;22.90;44.70;;;;;;5056472;28;20111;-77
2021/05/29 12:06:52;;;;;;;2.22;0.80;;;22.30;44.20;;;;;;5050017;28;20029;-78
2021/05/29 12:09:41;;;;;;;1.23;0.90;;;22.20;44.20;;;;;;5068373;28;20100;-79
2021/05/29 12:12:09;;;;;;;2.88;1.20;;;22.20;44.70;;;;;;5054214;28;20033;-79
2021/05/29 12:14:36;;;;;;;1.40;0.90;;;21.70;44.00;;;;;;5058113;28;20062;-79
2021/05/29 12:17:09;;;;;;;0.85;0.80;;;21.70;42.90;;;;;;5063786;28;20858;-80
2021/05/29 12:19:53;;;;;;;3.42;1.30;;;21.70;42.80;;;;;;5053704;28;20024;-79
2021/05/29 12:22:23;;;;;;;1.08;0.70;;;21.70;42.40;;;;;;5065562;28;20025;-80
2021/05/29 12:24:52;;;;;;;1.77;0.70;;;21.60;42.40;;;;;;5076215;28;20111;-81
2021/05/29 12:27:21;;;;;;;1.33;0.82;;;22.20;43.50;;;;;;5069886;28;20028;-78
2021/05/29 12:29:48;;;;;;;1.52;0.70;;;22.20;43.10;;;;;;5060363;28;20051;-77
2021/05/29 12:32:39;;;;;;;0.98;0.80;;;22.20;43.10;;;;;;5041292;28;20025;-78
2021/05/29 12:35:27;;;;;;;1.48;0.80;;;22.20;43.30;;;;;;5048127;28;20052;-77
2021/05/29 12:37:52;;;;;;;3.10;0.95;;;22.30;43.50;;;;;;5058569;28;20024;-77
2021/05/29 12:40:18;;;;;;;1.50;0.90;;;22.50;43.00;;;;;;5047224;28;20033;-80
2021/05/29 12:42:50;;;;;;;2.22;0.90;;;22.50;42.30;;;;;;5063758;28;20036;-76
2021/05/29 12:45:22;;;;;;;1.17;0.88;;;22.40;42.20;;;;;;5051955;28;20035;-79
2021/05/29 12:47:59;;;;;;;1.10;0.70;;;22.40;42.60;;;;;;5051733;28;20024;-76
2021/05/29 12:50:39;;;;;;;1.38;1.05;;;22.30;42.90;;;;;;5050310;28;20551;-78
2021/05/29 12:53:19;;;;;;;1.13;0.70;;;22.50;41.10;;;;;;5047337;28;20067;-78
2021/05/29 12:55:47;;;;;;;1.17;0.80;;;;;;;;;;5045213;28;20040;-77
2021/05/29 12:58:17;;;;;;;1.15;0.80;;;24.40;41.80;;;;;;5061320;28;20463;-77
2021/05/29 13:09:25;;;;;;;1.20;0.77;;;22.90;39.90;;;;;;5055277;28;20063;-79
2021/05/29 13:11:51;;;;;;;1.88;0.80;;;;;;;;;;5047244;28;20082;-78
2021/05/29 13:14:18;;;;;;;0.80;0.70;;;23.00;39.40;;;;;;5043434;28;20029;-79
2021/05/29 13:16:59;;;;;;;0.95;0.68;;;23.00;39.00;;;;;;5048454;28;20070;-78
2021/05/29 13:19:27;;;;;;;1.10;0.70;;;22.80;41.00;;;;;;5043846;28;20017;-79
2021/05/29 13:22:03;;;;;;;2.40;0.98;;;22.50;41.90;;;;;;5045629;28;20625;-78
2021/05/29 13:24:55;;;;;;;1.90;0.60;;;22.60;42.40;;;;;;5046630;28;20443;-78
2021/05/29 13:27:23;;;;;;;3.05;0.80;;;22.20;42.40;;;;;;5058097;28;20083;-75
2021/05/29 13:29:49;;;;;;;0.80;0.70;;;22.10;42.70;;;;;;5044049;28;20028;-83
2021/05/29 13:32:18;;;;;;;0.77;0.70;;;22.00;41.80;;;;;;5062952;28;20024;-82
2021/05/29 13:34:44;;;;;;;2.33;1.10;;;;;;;;;;5045704;28;20028;-78